Time;durP1;ratioP1;P1;durP2;ratioP2;P2;SDS_P1;SDS_P2;PMS_P1;PMS_P2;Temp;Humidity;BMP_temperature;BMP_pressure;BME280_temperature;BME280_humidity;BME280_pressure;Samples;Min_cycle;Max_cycle;Signal;HPM_P1;HPM_P2
2023/04/09 00:01:06;;;;;;;17.20;8.43;;;;;;;6.12;61.75;100416.06;7818305;32;39999;-73
2023/04/09 00:05:23;;;;;;;15.95;8.85;;;;;;;6.32;63.28;100418.53;7818203;32;40101;-81
2023/04/09 00:09:41;;;;;;;12.48;8.80;;;;;;;6.31;63.02;100419.56;7816248;32;37258;-81
2023/04/09 00:13:57;;;;;;;15.23;9.73;;;;;;;6.15;62.73;100421.03;7818036;32;36704;-81
2023/04/09 00:18:15;;;;;;;15.90;9.13;;;;;;;6.21;62.24;100430.97;7817927;32;39341;-82
2023/04/09 00:22:32;;;;;;;14.55;8.77;;;;;;;6.23;62.24;100415.31;7816526;32;40050;-81
2023/04/09 00:26:50;;;;;;;13.88;8.50;;;;;;;6.22;62.30;100421.78;7818132;31;38110;-81
2023/04/09 00:31:09;;;;;;;13.38;9.32;;;;;;;6.46;61.54;100427.31;7817561;32;36874;-82
2023/04/09 00:35:27;;;;;;;12.65;8.55;;;;;;;6.24;62.00;100422.34;7817542;32;39217;-81
2023/04/09 00:39:46;;;;;;;14.27;9.50;;;;;;;6.42;61.41;100428.84;7831906;31;39321;-82
2023/04/09 00:44:02;;;;;;;14.45;9.48;;;;;;;6.09;62.52;100421.91;7843541;31;38731;-82
2023/04/09 00:48:21;;;;;;;18.00;9.20;;;;;;;6.28;62.17;100425.44;7833743;31;36282;-82
2023/04/09 00:52:39;;;;;;;14.02;8.25;;;;;;;6.23;62.30;100418.03;7819734;32;39266;-81
2023/04/09 00:56:58;;;;;;;14.85;8.73;;;;;;;6.26;62.49;100417.56;7820796;32;39394;-81
2023/04/09 01:01:14;;;;;;;13.38;8.25;;;;;;;6.30;62.36;100418.75;7819377;32;38561;-82
2023/04/09 01:06:05;;;;;;;14.70;9.45;;;;;;;6.14;62.96;100416.66;7820599;32;37356;-81
2023/04/09 01:10:53;;;;;;;15.35;9.63;;;;;;;6.11;63.09;100412.53;7837498;31;39277;-81
2023/04/09 01:15:17;;;;;;;14.02;8.93;;;;;;;6.17;63.03;100414.34;7847142;31;39690;-82
2023/04/09 01:19:50;;;;;;;15.07;9.32;;;;;;;6.08;63.48;100409.47;7846844;31;37789;-81
2023/04/09 01:24:24;;;;;;;13.57;8.38;;;;;;;6.05;63.59;100412.63;7845576;31;36923;-81
2023/04/09 01:28:44;;;;;;;13.43;8.77;;;;;;;6.08;63.74;100409.47;7821176;31;39941;-82
2023/04/09 01:33:04;;;;;;;14.38;9.00;;;;;;;6.15;63.53;100411.00;7819024;32;39949;-82
2023/04/09 01:37:22;;;;;;;16.00;9.70;;;;;;;6.10;63.92;100416.28;7819080;32;38063;-83
2023/04/09 01:41:41;;;;;;;15.68;9.55;;;;;;;6.13;63.83;100415.03;7819257;32;36461;-81
2023/04/09 01:45:58;;;;;;;16.17;9.68;;;;;;;6.29;63.61;100419.78;7820340;32;39024;-81
2023/04/09 01:50:17;;;;;;;15.77;10.00;;;;;;;6.49;62.77;100416.03;7820096;32;39736;-81
2023/04/09 01:54:35;;;;;;;14.87;9.20;;;;;;;6.61;62.40;100408.75;7819437;31;37960;-81
2023/04/09 01:58:51;;;;;;;14.15;8.93;;;;;;;6.35;63.18;100412.66;7843202;31;37326;-81
2023/04/09 02:03:20;;;;;;;16.12;9.85;;;;;;;6.50;62.94;100417.66;7847728;31;39275;-82
2023/04/09 02:07:39;;;;;;;16.98;10.32;;;;;;;6.25;63.30;100415.91;7847013;31;39867;-81
2023/04/09 02:12:01;;;;;;;15.45;10.18;;;;;;;6.16;63.43;100422.69;7845700;31;37985;-81
2023/04/09 02:16:18;;;;;;;17.60;10.98;;;;;;;6.26;62.87;100414.00;7841232;31;38005;-81
2023/04/09 02:20:36;;;;;;;17.80;10.63;;;;;;;6.23;62.60;100420.72;7818626;32;39194;-81
2023/04/09 02:24:52;;;;;;;18.50;9.98;;;;;;;6.15;62.65;100415.63;7819625;32;39850;-81
2023/04/09 02:29:09;;;;;;;14.82;9.07;;;;;;;5.88;63.75;100399.66;7819510;32;38058;-81
2023/04/09 02:33:25;;;;;;;16.12;9.00;;;;;;;6.10;63.38;100401.94;7818313;32;36817;-80
2023/04/09 02:37:41;;;;;;;16.17;10.23;;;;;;;6.30;62.79;100409.81;7819747;32;39700;-81
2023/04/09 02:41:57;;;;;;;18.40;10.48;;;;;;;6.42;62.37;100404.44;7819393;32;40544;-82
2023/04/09 02:46:13;;;;;;;15.93;10.35;;;;;;;6.21;63.07;100409.31;7818034;31;38670;-81
2023/04/09 02:50:30;;;;;;;15.88;9.77;;;;;;;6.25;63.18;100413.19;7819288;32;37980;-82
2023/04/09 02:54:46;;;;;;;15.48;10.00;;;;;;;6.34;62.91;100403.69;7819377;32;39253;-81
2023/04/09 02:59:02;;;;;;;18.25;10.23;;;;;;;6.31;63.05;100406.03;7819210;32;40737;-82
2023/04/09 03:03:18;;;;;;;15.52;10.07;;;;;;;6.47;62.53;100400.00;7819136;32;37876;-80
2023/04/09 03:07:35;;;;;;;16.42;9.80;;;;;;;6.39;62.70;100406.53;7819071;32;36860;-81
2023/04/09 03:11:51;;;;;;;16.55;9.43;;;;;;;6.27;62.96;100408.38;7818250;32;38947;-81
2023/04/09 03:16:09;;;;;;;15.88;9.45;;;;;;;6.08;63.59;100412.97;7819010;31;39856;-81
2023/04/09 03:20:25;;;;;;;19.12;10.27;;;;;;;6.36;62.74;100401.59;7819079;32;37734;-81
2023/04/09 03:24:41;;;;;;;18.90;10.27;;;;;;;6.21;63.23;100401.19;7818971;32;37112;-81
2023/04/09 03:28:57;;;;;;;16.05;9.85;;;;;;;6.23;63.37;100401.78;7818915;32;39948;-81
2023/04/09 03:33:13;;;;;;;16.65;10.35;;;;;;;6.24;63.40;100400.69;7817494;32;39898;-82
2023/04/09 03:37:30;;;;;;;15.85;9.85;;;;;;;6.11;63.79;100400.88;7818599;32;38736;-81
2023/04/09 03:41:46;;;;;;;17.17;10.75;;;;;;;6.13;63.90;100406.91;7817500;32;37754;-81
2023/04/09 03:46:10;;;;;;;17.50;10.48;;;;;;;6.46;63.13;100408.34;7842641;31;39891;-81
2023/04/09 03:50:26;;;;;;;14.98;9.50;;;;;;;6.45;62.94;100403.97;7844889;31;40795;-81
2023/04/09 03:54:42;;;;;;;17.35;10.07;;;;;;;6.26;63.53;100406.75;7845890;31;37954;-81
2023/04/09 03:58:58;;;;;;;17.37;9.88;;;;;;;5.99;64.54;100404.34;7845830;31;37055;-81
2023/04/09 04:03:15;;;;;;;18.30;11.12;;;;;;;5.87;64.96;100411.53;7845878;31;39450;-81
2023/04/09 04:07:32;;;;;;;15.65;9.82;;;;;;;6.31;63.49;100412.28;7845469;31;39880;-81
2023/04/09 04:11:48;;;;;;;17.42;10.43;;;;;;;6.44;63.25;100415.88;7845229;31;38656;-79
2023/04/09 04:16:10;;;;;;;16.10;10.25;;;;;;;6.25;63.92;100417.78;7818689;31;37775;-81
2023/04/09 04:20:26;;;;;;;16.30;10.30;;;;;;;6.25;64.16;100417.78;7817914;32;39242;-81
2023/04/09 04:24:43;;;;;;;18.98;11.20;;;;;;;6.37;63.82;100422.19;7820058;31;40835;-82
2023/04/09 04:28:59;;;;;;;17.45;9.98;;;;;;;6.34;64.02;100419.94;7821065;32;38811;-81
2023/04/09 04:33:15;;;;;;;20.67;11.93;;;;;;;6.45;63.67;100418.34;7821008;32;37107;-81
2023/04/09 04:37:31;;;;;;;19.23;10.60;;;;;;;6.42;63.87;100423.41;7821038;32;39964;-81
2023/04/09 04:41:47;;;;;;;21.73;12.37;;;;;;;6.43;63.80;100425.03;7820920;32;39996;-82
2023/04/09 04:46:05;;;;;;;24.30;13.48;;;;;;;6.66;63.18;100427.03;7820768;31;38807;-81
2023/04/09 04:50:21;;;;;;;27.62;15.38;;;;;;;6.67;63.10;100432.19;7820817;32;37773;-71
2023/04/09 04:54:37;;;;;;;27.67;15.02;;;;;;;6.79;65.33;100432.25;7820796;32;40212;-72
2023/04/09 04:58:53;;;;;;;26.25;15.73;;;;;;;7.23;67.56;100432.81;7821712;31;40524;-81
2023/04/09 05:03:10;;;;;;;22.58;13.38;;;;;;;7.38;65.18;100440.53;7827990;31;37931;-81
2023/04/09 05:07:26;;;;;;;24.05;12.98;;;;;;;7.06;63.19;100438.09;7820608;32;37119;-81
2023/04/09 05:11:43;;;;;;;21.42;12.37;;;;;;;6.79;63.02;100436.84;7821180;31;40048;-79
2023/04/09 05:15:59;;;;;;;21.70;12.88;;;;;;;6.72;63.13;100445.88;7819431;32;40003;-80
2023/04/09 05:20:15;;;;;;;19.33;11.82;;;;;;;6.91;62.68;100449.38;7835679;31;37707;-82
2023/04/09 05:24:32;;;;;;;18.12;10.93;;;;;;;6.83;63.12;100443.44;7848047;31;37195;-79
2023/04/09 05:28:48;;;;;;;19.92;11.07;;;;;;;6.68;64.21;100449.31;7848012;31;39242;-82
2023/04/09 05:33:05;;;;;;;18.23;11.25;;;;;;;6.62;64.33;100456.44;7835337;31;40017;-81
2023/04/09 05:37:21;;;;;;;17.55;10.20;;;;;;;6.75;63.85;100458.97;7820561;32;38018;-82
2023/04/09 05:41:37;;;;;;;18.12;11.40;;;;;;;7.07;63.12;100461.44;7821581;32;37612;-82
2023/04/09 05:45:54;;;;;;;18.25;10.95;;;;;;;6.81;64.07;100464.53;7821617;32;40054;-82
2023/04/09 05:50:10;;;;;;;20.23;11.48;;;;;;;6.79;64.38;100466.66;7820604;31;40007;-84
2023/04/09 05:54:26;;;;;;;19.10;10.85;;;;;;;6.89;64.06;100470.47;7821444;32;38857;-80
2023/04/09 05:58:43;;;;;;;18.92;11.65;;;;;;;6.96;63.78;100471.19;7820718;32;38020;-83
2023/04/09 06:02:59;;;;;;;23.75;14.43;;;;;;;6.75;65.05;100469.81;7820402;31;39803;-82
2023/04/09 06:07:16;;;;;;;26.25;14.18;;;;;;;6.99;64.16;100475.34;7845372;31;39909;-82
2023/04/09 06:11:33;;;;;;;27.00;15.77;;;;;;;6.40;66.47;100477.81;7845682;31;37865;-82
2023/04/09 06:15:49;;;;;;;22.48;13.50;;;;;;;6.82;65.41;100482.47;7820860;32;37973;-83
2023/04/09 06:20:06;;;;;;;24.00;14.27;;;;;;;7.13;64.57;100474.06;7822043;32;40041;-82
2023/04/09 06:24:22;;;;;;;27.05;16.02;;;;;;;7.29;64.59;100471.75;7822962;32;40159;-84
2023/04/09 06:28:38;;;;;;;24.12;12.63;;;;;;;7.51;64.25;100474.72;7822117;32;38311;-82
2023/04/09 06:32:55;;;;;;;18.87;11.25;;;;;;;7.73;63.54;100469.53;7821298;32;37926;-83
2023/04/09 06:37:11;;;;;;;19.85;12.60;;;;;;;6.72;65.37;100481.13;7838474;31;39382;-82
2023/04/09 06:41:27;;;;;;;22.30;11.60;;;;;;;6.84;65.24;100485.78;7851143;31;40240;-82
2023/04/09 06:45:43;;;;;;;18.83;11.80;;;;;;;6.90;65.14;100493.00;7847158;31;38172;-83
2023/04/09 06:50:00;;;;;;;19.08;11.70;;;;;;;7.52;63.32;100487.25;7832666;31;37951;-83
2023/04/09 06:54:16;;;;;;;21.95;12.50;;;;;;;7.34;63.77;100488.16;7820508;32;39356;-84
2023/04/09 06:58:32;;;;;;;18.15;11.98;;;;;;;7.39;63.81;100488.28;7820361;32;39867;-83
2023/04/09 07:02:49;;;;;;;18.65;11.43;;;;;;;7.61;63.49;100485.81;7833595;31;38765;-83
2023/04/09 07:07:05;;;;;;;20.23;12.68;;;;;;;7.33;63.36;100489.22;7837173;31;37151;-83
2023/04/09 07:11:22;;;;;;;20.67;11.98;;;;;;;7.35;64.04;100495.22;7819344;32;40051;-83
2023/04/09 07:15:38;;;;;;;18.95;11.73;;;;;;;7.47;63.73;100501.50;7819300;32;40002;-77
2023/04/09 07:19:57;;;;;;;17.52;10.93;;;;;;;7.59;63.50;100501.50;7819386;32;37752;-82
2023/04/09 07:24:13;;;;;;;17.70;11.23;;;;;;;7.55;63.53;100511.16;7819125;32;36828;-83
2023/04/09 07:28:29;;;;;;;18.52;11.77;;;;;;;8.05;63.79;100501.75;7819253;32;39226;-81
2023/04/09 07:32:46;;;;;;;18.60;11.63;;;;;;;8.39;62.20;100496.50;7831479;31;40100;-82
2023/04/09 07:37:02;;;;;;;19.23;10.90;;;;;;;8.22;61.73;100504.56;7846620;31;38681;-82
2023/04/09 07:41:18;;;;;;;15.70;10.90;;;;;;;8.08;62.55;100510.22;7849532;31;37077;-80
2023/04/09 07:45:34;;;;;;;18.00;11.25;;;;;;;7.90;62.15;100516.62;7846463;31;39539;-84
2023/04/09 07:49:50;;;;;;;19.42;10.55;;;;;;;8.54;60.95;100513.16;7821952;31;40041;-83
2023/04/09 07:54:07;;;;;;;16.35;11.07;;;;;;;8.82;60.35;100508.81;7828772;31;39167;-83
2023/04/09 07:58:23;;;;;;;17.00;10.27;;;;;;;8.58;60.84;100519.75;7845596;31;37155;-83
2023/04/09 08:02:40;;;;;;;15.13;9.73;;;;;;;8.57;61.02;100523.53;7845989;31;39338;-86
2023/04/09 08:06:57;;;;;;;16.90;10.77;;;;;;;8.19;60.99;100522.16;7834585;31;336996;-84
2023/04/09 08:11:13;;;;;;;14.48;9.60;;;;;;;8.32;59.99;100515.63;7843983;31;37512;-83
2023/04/09 08:15:29;;;;;;;18.10;9.35;;;;;;;8.32;59.39;100512.09;7846337;31;36725;-82
2023/04/09 08:19:45;;;;;;;17.02;9.70;;;;;;;8.61;59.43;100513.00;7822857;31;39145;-84
2023/04/09 08:24:03;;;;;;;13.27;9.25;;;;;;;8.94;58.17;100506.84;7818191;32;40145;-83
2023/04/09 08:28:20;;;;;;;14.40;9.00;;;;;;;8.57;59.39;100511.81;7817975;32;40207;-84
2023/04/09 08:32:36;;;;;;;14.18;9.43;;;;;;;8.65;58.52;100509.56;7841856;31;36965;-83
2023/04/09 08:36:53;;;;;;;15.02;9.10;;;;;;;8.48;58.27;100516.81;7818316;32;38741;-82
2023/04/09 08:41:19;;;;;;;15.13;8.85;;;;;;;8.72;58.30;100516.75;7818156;32;39906;-83
2023/04/09 08:45:35;;;;;;;14.90;9.13;;;;;;;8.89;57.55;100523.06;7816678;32;38666;-83
2023/04/09 08:49:52;;;;;;;14.95;9.48;;;;;;;9.10;56.91;100520.72;7816529;32;37336;-83
2023/04/09 08:54:08;;;;;;;14.55;9.48;;;;;;;9.11;57.64;100519.69;7823665;31;39333;-83
2023/04/09 08:58:24;;;;;;;15.93;9.40;;;;;;;9.51;56.01;100526.91;7817039;31;39492;-84
2023/04/09 09:03:04;;;;;;;14.82;8.43;;;;;;;9.31;57.34;100528.22;7833628;31;37597;-83
2023/04/09 09:07:21;;;;;;;16.40;9.00;;;;;;;9.34;55.69;100541.31;7844438;31;37789;-82
2023/04/09 09:11:39;;;;;;;13.90;8.57;;;;;;;9.24;55.84;100537.56;7844689;31;39283;-83
2023/04/09 09:16:11;;;;;;;12.05;7.90;;;;;;;9.61;55.13;100540.69;7821789;32;39569;-83
2023/04/09 09:20:28;;;;;;;14.18;8.88;;;;;;;9.28;55.13;100549.63;7822061;32;37926;-84
2023/04/09 09:24:49;;;;;;;14.80;9.55;;;;;;;9.59;55.06;100551.00;7823452;32;37017;-85
2023/04/09 09:29:05;;;;;;;14.87;9.05;;;;;;;9.64;55.91;100537.47;7820965;32;39922;-84
2023/04/09 09:33:21;;;;;;;10.68;7.47;;;;;;;9.72;55.32;100539.75;7842047;31;40915;-84
2023/04/09 09:37:38;;;;;;;14.50;8.77;;;;;;;9.48;54.18;100549.97;7822145;32;37986;-83
2023/04/09 09:42:07;;;;;;;13.82;8.23;;;;;;;9.77;54.20;100552.63;7837067;31;37826;-82
2023/04/09 09:46:25;;;;;;;14.35;8.45;;;;;;;10.22;54.67;100543.50;7825227;31;39302;-83
2023/04/09 09:50:42;;;;;;;11.73;7.68;;;;;;;10.02;53.23;100538.59;7820854;32;39915;-82
2023/04/09 09:55:01;;;;;;;13.00;7.65;;;;;;;10.19;52.74;100540.47;7844588;31;38084;-83
2023/04/09 09:59:22;;;;;;;13.77;7.75;;;;;;;10.46;51.30;100544.12;7838085;31;36891;-72
2023/04/09 10:03:39;;;;;;;14.05;7.50;;;;;;;10.79;52.52;100536.09;7846526;31;40784;-72
2023/04/09 10:07:59;;;;;;;11.60;6.70;;;;;;;11.49;54.75;100533.50;7847431;31;39886;-81
2023/04/09 10:12:15;;;;;;;11.20;7.05;;;;;;;11.71;49.63;100533.41;7834621;31;37642;-83
2023/04/09 10:16:32;;;;;;;10.98;6.85;;;;;;;11.78;46.47;100534.84;7814701;31;36997;-83
2023/04/09 10:20:58;;;;;;;11.38;6.85;;;;;;;11.88;45.56;100527.81;7828204;31;38707;-83
2023/04/09 10:25:15;;;;;;;10.82;5.87;;;;;;;12.32;47.53;100517.47;7828605;31;40740;-83
2023/04/09 10:29:31;;;;;;;11.12;5.95;;;;;;;12.40;43.93;100511.50;7828109;31;37396;-83
2023/04/09 10:33:49;;;;;;;10.77;6.47;;;;;;;12.42;43.25;100515.84;7834734;31;36958;-83
2023/04/09 10:38:13;;;;;;;11.07;5.95;;;;;;;12.58;44.41;100514.84;7846589;31;39764;-83
2023/04/09 10:42:35;;;;;;;11.07;6.18;;;;;;;12.53;42.76;100509.34;7845516;31;39633;-85
2023/04/09 10:46:53;;;;;;;11.40;6.25;;;;;;;12.56;43.17;100508.81;7843094;31;38145;-84
2023/04/09 10:51:17;;;;;;;11.70;6.25;;;;;;;12.78;43.77;100500.44;7846499;31;36752;-84
2023/04/09 10:55:37;;;;;;;10.02;6.82;;;;;;;12.78;43.43;100503.97;7845995;31;38755;-84
2023/04/09 10:59:54;;;;;;;12.77;7.32;;;;;;;12.88;47.41;100505.09;7847086;31;40709;-84
2023/04/09 11:04:19;;;;;;;11.73;7.03;;;;;;;13.23;45.33;100498.88;7846987;31;37874;-84
2023/04/09 11:08:41;;;;;;;12.73;7.55;;;;;;;13.51;45.56;100499.47;7846736;31;37532;-84
2023/04/09 11:12:57;;;;;;;10.20;6.70;;;;;;;13.34;43.90;100502.47;7846968;31;39250;-84
2023/04/09 11:17:14;;;;;;;13.07;7.82;;;;;;;13.27;43.25;100501.87;7846868;31;40031;-84
2023/04/09 11:21:30;;;;;;;15.25;9.40;;;;;;;13.27;44.37;100502.69;7845837;31;38736;-84
2023/04/09 11:25:50;;;;;;;10.63;6.90;;;;;;;13.56;44.36;100504.13;7845928;31;36979;-83
2023/04/09 11:30:07;;;;;;;11.63;7.25;;;;;;;13.85;44.04;100502.44;7845706;31;39590;-85
2023/04/09 11:34:27;;;;;;;11.82;6.45;;;;;;;13.36;44.33;100500.25;7844142;31;40863;-84
2023/04/09 11:38:46;;;;;;;12.88;6.68;;;;;;;13.07;44.76;100508.13;7846521;31;38687;-84
2023/04/09 11:43:03;;;;;;;11.95;6.37;;;;;;;13.32;41.78;100507.41;7846485;31;37053;-84
2023/04/09 11:47:19;;;;;;;10.85;6.15;;;;;;;12.73;43.96;100514.09;7846403;31;39746;-85
2023/04/09 11:51:36;;;;;;;10.20;6.18;;;;;;;12.43;43.46;100503.84;7845051;31;40792;-85
2023/04/09 11:55:53;;;;;;;11.65;6.12;;;;;;;12.71;42.51;100508.03;7844770;31;37904;-84
2023/04/09 12:00:12;;;;;;;12.37;6.93;;;;;;;12.62;43.17;100513.22;7845097;31;37846;-85
2023/04/09 12:04:28;;;;;;;12.07;6.55;;;;;;;12.47;42.58;100504.94;7845194;31;39256;-84
2023/04/09 12:08:44;;;;;;;12.27;6.20;;;;;;;12.29;43.18;100508.97;7846217;31;39843;-84
2023/04/09 12:13:09;;;;;;;10.05;6.95;;;;;;;12.49;42.36;100503.59;7845786;31;38719;-85
2023/04/09 12:17:25;;;;;;;20.92;13.50;;;;;;;12.44;42.45;100505.50;7845450;31;36681;-84
2023/04/09 12:21:55;;;;;;;12.65;8.13;;;;;;;12.57;42.45;100500.34;7844010;31;40121;-87
2023/04/09 12:26:11;;;;;;;12.80;7.20;;;;;;;12.47;44.98;100507.66;7845549;31;40483;-84
2023/04/09 12:30:27;;;;;;;14.13;7.55;;;;;;;12.66;43.38;100503.41;7845395;31;38525;-85
2023/04/09 12:34:46;;;;;;;14.07;7.47;;;;;;;11.76;44.72;100507.00;7844005;31;37134;-86
2023/04/09 12:39:02;;;;;;;12.43;6.90;;;;;;;12.35;45.00;100497.78;7845323;31;39387;-86
2023/04/09 12:43:20;;;;;;;12.57;6.60;;;;;;;12.55;43.34;100496.22;7845289;31;39368;-85
2023/04/09 12:47:38;;;;;;;13.15;6.78;;;;;;;12.81;43.81;100488.09;7848561;31;38304;-85
2023/04/09 12:51:54;;;;;;;12.50;7.28;;;;;;;12.89;42.18;100477.47;7847455;31;36699;-85
2023/04/09 12:56:11;;;;;;;11.65;7.22;;;;;;;13.63;42.16;100478.09;7848490;31;40117;-86
2023/04/09 13:00:29;;;;;;;9.77;6.18;;;;;;;12.82;40.61;100476.91;7848691;31;40581;-85
2023/04/09 13:04:46;;;;;;;9.60;5.82;;;;;;;13.29;41.71;100472.31;7848695;31;38269;-84
2023/04/09 13:09:02;;;;;;;10.02;6.28;;;;;;;13.38;38.79;100469.88;7848287;31;36823;-85
2023/04/09 13:13:19;;;;;;;11.32;6.53;;;;;;;13.10;39.15;100464.63;7848203;31;39768;-86
2023/04/09 13:17:38;;;;;;;11.48;6.75;;;;;;;13.00;40.05;100461.88;7848350;31;39783;-85
2023/04/09 13:21:54;;;;;;;10.68;6.15;;;;;;;13.32;38.91;100458.09;7848250;31;38966;-86
2023/04/09 13:26:10;;;;;;;9.68;5.57;;;;;;;13.74;37.43;100456.97;7848263;31;36931;-86
2023/04/09 13:30:26;;;;;;;8.98;5.80;;;;;;;14.11;38.16;100455.78;7847090;31;39282;-85
2023/04/09 13:34:42;;;;;;;10.73;6.12;;;;;;;13.77;37.68;100461.91;7848161;31;39971;-86
2023/04/09 13:39:05;;;;;;;10.57;6.03;;;;;;;13.30;38.31;100458.34;7848226;31;38508;-85
2023/04/09 13:43:26;;;;;;;10.23;6.37;;;;;;;13.00;39.00;100450.91;7848220;31;37042;-86
2023/04/09 13:47:43;;;;;;;9.93;6.43;;;;;;;12.91;38.49;100444.34;7848071;31;40339;-86
2023/04/09 13:51:59;;;;;;;11.23;6.20;;;;;;;13.81;39.36;100446.53;7847990;31;41440;-85
2023/04/09 13:56:15;;;;;;;11.27;6.47;;;;;;;13.42;38.20;100444.41;7847370;31;38806;-86
2023/04/09 14:00:33;;;;;;;10.10;5.97;;;;;;;13.81;37.89;100440.22;7847960;31;37871;-85
2023/04/09 14:04:49;;;;;;;9.90;6.18;;;;;;;13.17;38.27;100441.63;7847969;31;39671;-85
2023/04/09 14:09:05;;;;;;;11.45;6.35;;;;;;;13.23;38.69;100437.78;7847563;31;40528;-86
2023/04/09 14:13:21;;;;;;;11.85;6.60;;;;;;;12.88;39.66;100445.72;7846023;31;37888;-85
2023/04/09 14:17:38;;;;;;;10.07;6.50;;;;;;;12.89;39.91;100430.13;7847555;31;37836;-85
2023/04/09 14:21:54;;;;;;;10.80;6.53;;;;;;;12.77;41.16;100433.09;7846463;31;39547;-85
2023/04/09 14:26:11;;;;;;;10.55;6.12;;;;;;;12.99;39.30;100441.09;7846346;31;40707;-85
2023/04/09 14:30:27;;;;;;;11.25;6.70;;;;;;;12.77;39.74;100435.84;7846143;31;38359;-87
2023/04/09 14:34:43;;;;;;;10.63;6.53;;;;;;;12.31;41.48;100431.03;7847025;31;37706;-86
2023/04/09 14:38:59;;;;;;;10.23;6.35;;;;;;;12.35;40.26;100436.81;7847372;31;39296;-86
2023/04/09 14:43:16;;;;;;;9.77;6.18;;;;;;;12.67;41.15;100425.69;7847214;31;40826;-86
2023/04/09 14:47:32;;;;;;;10.52;6.22;;;;;;;12.63;40.41;100419.13;7847276;31;38181;-87
2023/04/09 14:51:48;;;;;;;11.85;6.40;;;;;;;12.16;40.95;100429.09;7847182;31;37757;-86
2023/04/09 14:56:05;;;;;;;10.85;6.10;;;;;;;12.33;41.11;100433.50;7845950;31;39292;-86
2023/04/09 15:00:21;;;;;;;11.43;6.60;;;;;;;12.39;40.49;100427.81;7847407;31;39652;-87
2023/04/09 15:04:37;;;;;;;11.05;5.90;;;;;;;12.56;40.72;100435.78;7847657;31;38148;-86
2023/04/09 15:08:54;;;;;;;11.40;6.50;;;;;;;12.77;41.65;100427.63;7845661;31;37101;-88
2023/04/09 15:13:10;;;;;;;10.73;6.05;;;;;;;13.00;39.90;100430.94;7845645;31;39987;-87
2023/04/09 15:17:27;;;;;;;9.98;6.15;;;;;;;12.79;40.28;100430.91;7846664;31;40004;-86
2023/04/09 15:21:44;;;;;;;12.30;6.53;;;;;;;12.83;40.51;100431.19;7846730;31;38873;-87
2023/04/09 15:26:00;;;;;;;9.77;5.97;;;;;;;13.05;40.50;100434.50;7846732;31;36967;-86
2023/04/09 15:30:16;;;;;;;10.43;6.18;;;;;;;13.04;38.84;100427.41;7846904;31;39945;-86
2023/04/09 15:34:33;;;;;;;11.75;7.37;;;;;;;13.14;39.63;100424.66;7846862;31;39991;-86
2023/04/09 15:38:52;;;;;;;12.80;7.10;;;;;;;12.84;41.23;100430.13;7846885;31;37642;-84
2023/04/09 15:43:08;;;;;;;13.45;7.65;;;;;;;13.10;42.32;100422.75;7849704;31;37184;-84
2023/04/09 15:47:27;;;;;;;13.05;7.82;;;;;;;13.45;44.21;100421.97;7847854;31;39668;-84
2023/04/09 15:51:44;;;;;;;11.35;6.68;;;;;;;13.86;42.37;100412.81;7846402;31;40555;-85
2023/04/09 15:56:01;;;;;;;14.60;7.82;;;;;;;14.09;41.54;100422.34;7846066;31;38562;-84
2023/04/09 16:00:18;;;;;;;14.02;7.30;;;;;;;14.18;40.16;100417.94;7846126;31;37087;-85
2023/04/09 16:04:34;;;;;;;13.68;7.47;;;;;;;13.71;41.85;100420.00;7846038;31;39313;-87
2023/04/09 16:08:50;;;;;;;12.55;7.30;;;;;;;13.77;41.84;100433.69;7845785;31;39942;-86
2023/04/09 16:13:07;;;;;;;12.90;7.05;;;;;;;13.53;43.10;100429.59;7845724;31;38406;-86
2023/04/09 16:17:23;;;;;;;13.60;7.20;;;;;;;13.69;43.41;100426.84;7845767;31;37153;-86
2023/04/09 16:21:43;;;;;;;21.65;14.87;;;;;;;13.47;42.32;100427.13;7845420;31;39254;-86
2023/04/09 16:25:59;;;;;;;17.58;10.55;;;;;;;13.34;43.93;100432.06;7845488;31;39849;-86
2023/04/09 16:30:16;;;;;;;12.88;8.07;;;;;;;13.21;44.24;100426.28;7845385;31;38075;-86
2023/04/09 16:34:32;;;;;;;17.02;8.95;;;;;;;13.11;44.16;100430.69;7845417;31;36771;-87
2023/04/09 16:38:49;;;;;;;12.93;8.05;;;;;;;13.06;44.48;100430.69;7845288;31;39058;-85
2023/04/09 16:43:06;;;;;;;17.17;9.80;;;;;;;12.84;45.08;100425.44;7845076;31;40001;-86
2023/04/09 16:47:22;;;;;;;15.00;8.88;;;;;;;12.84;45.64;100425.44;7844814;31;38875;-87
2023/04/09 16:51:38;;;;;;;16.30;9.18;;;;;;;12.66;46.16;100426.81;7823705;31;37044;-75
2023/04/09 16:55:54;;;;;;;14.82;8.52;;;;;;;12.66;46.53;100423.22;7830841;31;39228;-85
2023/04/09 17:00:11;;;;;;;12.48;8.20;;;;;;;12.68;45.82;100430.09;7844256;31;40805;-86
2023/04/09 17:04:28;;;;;;;13.52;8.13;;;;;;;12.63;46.35;100427.34;7844553;31;38214;-84
2023/04/09 17:08:45;;;;;;;13.60;8.68;;;;;;;12.59;46.50;100429.78;7837914;31;36921;-84
2023/04/09 17:13:01;;;;;;;14.80;8.48;;;;;;;12.37;46.92;100424.53;7816430;32;40262;-85
2023/04/09 17:17:17;;;;;;;15.00;8.38;;;;;;;12.47;45.84;100420.16;7816740;32;40671;-84
2023/04/09 17:21:33;;;;;;;13.32;8.25;;;;;;;12.31;46.67;100422.84;7842208;31;38765;-84
2023/04/09 17:25:49;;;;;;;14.23;8.65;;;;;;;12.11;47.51;100431.00;7844046;31;37823;-84
2023/04/09 17:30:06;;;;;;;16.33;9.00;;;;;;;12.13;47.06;100435.09;7835542;31;39509;-75
2023/04/09 17:34:23;;;;;;;15.85;9.32;;;;;;;11.87;47.80;100436.03;7839091;31;40842;-83
2023/04/09 17:38:39;;;;;;;16.52;10.30;;;;;;;11.84;47.00;100442.81;7847637;31;38490;-84
2023/04/09 17:42:55;;;;;;;17.02;10.45;;;;;;;11.91;47.39;100448.09;7848204;31;38094;-85
2023/04/09 17:47:11;;;;;;;18.42;11.10;;;;;;;11.75;48.95;100438.97;7840505;31;39885;-85
2023/04/09 17:51:28;;;;;;;19.52;12.10;;;;;;;11.76;49.37;100443.31;7820563;32;40527;-86
2023/04/09 17:55:49;;;;;;;18.85;11.23;;;;;;;11.74;49.60;100453.69;7826499;31;38082;-85
2023/04/09 18:00:06;;;;;;;18.50;11.32;;;;;;;11.69;49.13;100454.47;7836233;31;36047;-85
2023/04/09 18:04:25;;;;;;;17.87;10.77;;;;;;;11.61;49.46;100460.44;7843307;31;39975;-85
2023/04/09 18:08:42;;;;;;;19.55;11.43;;;;;;;11.61;49.92;100468.63;7846016;31;39953;-84
2023/04/09 18:12:58;;;;;;;17.90;11.12;;;;;;;11.30;51.15;100473.84;7846188;31;37938;-84
2023/04/09 18:17:15;;;;;;;17.00;10.05;;;;;;;11.34;51.23;100476.88;7845897;31;38131;-85
2023/04/09 18:21:31;;;;;;;16.80;10.10;;;;;;;11.35;51.06;100482.09;7846259;31;38847;-84
2023/04/09 18:25:51;;;;;;;18.42;10.90;;;;;;;11.06;51.61;100493.28;7844416;31;40623;-84
2023/04/09 18:30:07;;;;;;;15.43;9.73;;;;;;;11.15;51.16;100501.81;7844912;31;39349;-84
2023/04/09 18:34:26;;;;;;;15.43;9.43;;;;;;;11.21;50.21;100499.94;7847446;31;36263;-83
2023/04/09 18:38:42;;;;;;;15.50;9.55;;;;;;;11.00;51.07;100493.47;7835764;31;38520;-84
2023/04/09 18:42:58;;;;;;;18.08;10.32;;;;;;;11.01;50.84;100497.87;7838357;31;39869;-86
2023/04/09 18:47:14;;;;;;;17.35;9.82;;;;;;;11.01;50.58;100495.94;7837543;31;37938;-86
2023/04/09 18:51:31;;;;;;;19.50;9.90;;;;;;;11.12;50.30;100496.88;7836791;31;36597;-83
2023/04/09 18:55:50;;;;;;;18.33;9.98;;;;;;;10.78;51.05;100502.53;7835606;31;39288;-86
2023/04/09 19:00:08;;;;;;;32.08;16.67;;;;;;;10.95;50.94;100499.72;7833623;31;39626;-87
2023/04/09 19:04:26;;;;;;;26.02;14.77;;;;;;;10.93;51.21;100503.78;7829085;31;37300;-85
2023/04/09 19:08:44;;;;;;;28.73;15.25;;;;;;;10.93;51.10;100498.31;7832716;31;37405;-86
2023/04/09 19:13:03;;;;;;;24.58;13.98;;;;;;;10.90;50.70;100505.94;7833189;31;39463;-86
2023/04/09 19:17:24;;;;;;;23.48;13.95;;;;;;;10.90;50.13;100510.59;7833637;31;40673;-84
2023/04/09 19:21:40;;;;;;;25.00;15.02;;;;;;;10.81;51.63;100512.09;7833290;31;38796;-83
2023/04/09 19:25:57;;;;;;;19.90;13.13;;;;;;;10.85;51.71;100507.81;7834610;31;38286;-85
2023/04/09 19:30:13;;;;;;;21.17;12.57;;;;;;;10.75;52.14;100505.78;7833563;31;38908;-82
2023/04/09 19:34:29;;;;;;;19.58;11.15;;;;;;;10.73;51.87;100507.94;7830223;31;39978;-83
2023/04/09 19:38:45;;;;;;;17.77;10.73;;;;;;;10.83;51.50;100510.78;7822368;31;38104;-85
2023/04/09 19:43:02;;;;;;;19.98;11.75;;;;;;;10.57;51.99;100514.28;7841269;31;37918;-86
2023/04/09 19:47:18;;;;;;;18.33;11.27;;;;;;;10.62;51.77;100498.78;7832810;31;39228;-74